Time;durP1;ratioP1;P1;durP2;ratioP2;P2;SDS_P1;SDS_P2;PMS_P1;PMS_P2;Temp;Humidity;BMP_temperature;BMP_pressure;BME280_temperature;BME280_humidity;BME280_pressure;Samples;Min_cycle;Max_cycle;Signal;HPM_P1;HPM_P2
2023/02/12 00:00:48;;;;;;;8.30;1.50;;;24.20;27.10;;;;;;5089682;28;20068;-64
2023/02/12 00:03:15;;;;;;;16.17;2.28;;;24.30;27.20;;;;;;5092400;28;20084;-62
2023/02/12 00:05:41;;;;;;;13.38;2.70;;;24.30;27.00;;;;;;5092095;28;20040;-63
2023/02/12 00:08:10;;;;;;;19.60;3.30;;;24.20;27.10;;;;;;5090383;28;20068;-63
2023/02/12 00:10:41;;;;;;;27.67;4.05;;;24.00;26.60;;;;;;5089007;28;20043;-64
2023/02/12 00:13:11;;;;;;;15.63;3.90;;;23.90;26.60;;;;;;5089481;28;20182;-62
2023/02/12 00:15:39;;;;;;;17.17;4.22;;;23.80;26.30;;;;;;5091947;28;20059;-62
2023/02/12 00:18:06;;;;;;;17.38;3.45;;;23.80;26.20;;;;;;5088995;28;20053;-61
2023/02/12 00:20:33;;;;;;;13.70;2.60;;;23.70;25.80;;;;;;5089930;28;20518;-62
2023/02/12 00:22:59;;;;;;;15.52;2.60;;;23.70;25.60;;;;;;5090569;28;20068;-60
2023/02/12 00:25:26;;;;;;;20.38;2.55;;;23.70;25.30;;;;;;5090870;28;20046;-62
2023/02/12 00:27:52;;;;;;;10.48;2.53;;;23.70;25.40;;;;;;5091485;28;20066;-61
2023/02/12 00:30:19;;;;;;;21.48;2.58;;;23.70;25.20;;;;;;5090089;28;20043;-60
2023/02/12 00:32:45;;;;;;;7.85;2.83;;;23.70;25.10;;;;;;5090898;28;20512;-62
2023/02/12 00:35:12;;;;;;;15.23;3.20;;;23.60;24.80;;;;;;5089870;28;20132;-63
2023/02/12 00:37:39;;;;;;;18.92;3.30;;;23.50;24.70;;;;;;5089046;28;20061;-62
2023/02/12 00:40:06;;;;;;;10.52;2.72;;;23.50;24.80;;;;;;5089892;28;20091;-62
2023/02/12 00:42:32;;;;;;;9.45;1.70;;;23.40;24.90;;;;;;5089985;28;20047;-64
2023/02/12 00:44:59;;;;;;;15.63;2.22;;;23.30;25.00;;;;;;5089437;28;20065;-62
2023/02/12 00:47:25;;;;;;;10.80;2.70;;;23.30;25.00;;;;;;5089145;28;20043;-64
2023/02/12 00:49:51;;;;;;;20.73;2.67;;;23.30;25.30;;;;;;5090939;28;20079;-65
2023/02/12 00:52:18;;;;;;;12.90;2.15;;;23.20;25.10;;;;;;5090886;28;20061;-64
2023/02/12 00:54:44;;;;;;;19.10;2.55;;;23.10;25.20;;;;;;5088869;28;20422;-61
2023/02/12 00:57:11;;;;;;;11.55;2.58;;;22.90;25.40;;;;;;5089514;28;20057;-64
2023/02/12 00:59:39;;;;;;;11.95;3.03;;;22.70;25.60;;;;;;5091245;28;20465;-65
2023/02/12 01:02:05;;;;;;;17.48;3.03;;;22.50;25.80;;;;;;5089542;28;20094;-64
2023/02/12 01:04:32;;;;;;;14.05;2.30;;;22.30;26.10;;;;;;5091442;28;20085;-62
2023/02/12 01:06:58;;;;;;;20.00;2.70;;;22.10;26.00;;;;;;5089886;28;21129;-65
2023/02/12 01:09:25;;;;;;;14.52;2.60;;;22.00;26.00;;;;;;5089539;28;20055;-64
2023/02/12 01:11:51;;;;;;;29.85;10.52;;;22.00;26.10;;;;;;5088909;28;20074;-62
2023/02/12 01:14:17;;;;;;;18.55;2.55;;;21.90;26.10;;;;;;5092701;28;20887;-60
2023/02/12 01:16:44;;;;;;;22.27;6.60;;;21.80;26.10;;;;;;5093709;28;20132;-63
2023/02/12 01:19:11;;;;;;;14.50;5.70;;;21.60;26.10;;;;;;5091096;28;20174;-62
2023/02/12 01:21:38;;;;;;;7.82;3.08;;;21.40;26.30;;;;;;5090354;28;20061;-63
2023/02/12 01:24:05;;;;;;;19.50;9.80;;;21.30;26.50;;;;;;5090317;28;20082;-65
2023/02/12 01:26:31;;;;;;;13.85;3.17;;;21.30;26.70;;;;;;5090229;28;20524;-64
2023/02/12 01:29:00;;;;;;;14.30;3.58;;;21.20;26.60;;;;;;5094773;28;20555;-65
2023/02/12 01:31:29;;;;;;;17.38;5.70;;;21.10;26.90;;;;;;5090365;28;20062;-64
2023/02/12 01:33:57;;;;;;;22.60;7.47;;;21.10;27.30;;;;;;5089835;28;20075;-61
2023/02/12 01:36:25;;;;;;;28.08;8.25;;;20.90;27.40;;;;;;5089087;28;20062;-62
2023/02/12 01:38:52;;;;;;;19.27;5.03;;;20.70;27.40;;;;;;5090863;28;20142;-65
2023/02/12 01:41:24;;;;;;;22.42;4.85;;;20.60;27.40;;;;;;5088501;28;20067;-59
2023/02/12 01:44:11;;;;;;;23.67;5.28;;;20.50;27.60;;;;;;5090882;28;20084;-57
2023/02/12 01:46:37;;;;;;;;;;;20.40;28.30;;;;;;5090627;28;20723;-62
2023/02/12 01:49:08;;;;;;;26.00;4.43;;;20.30;27.90;;;;;;5089597;28;20001;-61
2023/02/12 01:51:35;;;;;;;26.90;6.70;;;20.30;28.30;;;;;;5089270;28;20061;-64
2023/02/12 01:54:06;;;;;;;22.65;5.50;;;20.20;28.70;;;;;;5088307;28;20401;-61
2023/02/12 01:56:33;;;;;;;34.95;14.90;;;20.10;28.80;;;;;;5089126;28;20620;-61
2023/02/12 01:58:59;;;;;;;28.17;10.32;;;20.00;29.80;;;;;;5090828;28;20552;-58
2023/02/12 02:01:29;;;;;;;44.40;16.63;;;19.90;29.60;;;;;;5085955;28;20067;-60
2023/02/12 02:04:09;;;;;;;48.88;20.65;;;19.90;29.70;;;;;;5087517;28;20104;-60
2023/02/12 02:06:43;;;;;;;34.38;13.57;;;19.80;29.60;;;;;;5086869;28;20066;-59
2023/02/12 02:09:09;;;;;;;32.63;11.90;;;19.70;30.60;;;;;;5085839;28;20071;-59
2023/02/12 02:14:32;;;;;;;30.63;15.73;;;19.50;30.30;;;;;;5086012;28;20608;-63
2023/02/12 02:17:23;;;;;;;30.70;9.60;;;19.40;30.30;;;;;;5087050;28;20074;-59
2023/02/12 02:20:14;;;;;;;19.30;4.43;;;19.30;29.90;;;;;;5091904;28;20058;-62
2023/02/12 02:22:54;;;;;;;19.67;4.32;;;19.30;34.10;;;;;;5087383;28;20067;-65
2023/02/12 02:25:48;;;;;;;15.77;5.20;;;19.10;36.60;;;;;;5087348;28;20098;-63
2023/02/12 02:28:40;;;;;;;27.25;6.53;;;19.00;38.00;;;;;;5086011;28;20075;-62
2023/02/12 02:31:19;;;;;;;21.35;4.82;;;19.00;38.60;;;;;;5086784;28;20559;-64
2023/02/12 02:33:57;;;;;;;21.52;5.18;;;18.90;42.30;;;;;;5086132;28;20087;-64
2023/02/12 02:36:46;;;;;;;25.77;5.43;;;18.70;45.30;;;;;;5085875;28;20155;-61
2023/02/12 02:39:19;;;;;;;22.50;5.25;;;18.50;47.00;;;;;;5086788;28;20158;-66
2023/02/12 02:42:03;;;;;;;22.15;4.53;;;18.40;48.30;;;;;;5084950;28;20121;-64
2023/02/12 02:44:53;;;;;;;28.77;11.23;;;18.30;49.60;;;;;;5088684;28;20159;-61
2023/02/12 02:47:28;;;;;;;42.08;18.25;;;18.20;50.00;;;;;;5087682;28;20064;-65
2023/02/12 02:50:01;;;;;;;43.90;15.57;;;18.20;50.60;;;;;;5087541;28;20072;-63
2023/02/12 02:52:41;;;;;;;47.50;24.02;;;18.10;51.30;;;;;;5089031;28;20065;-63
2023/02/12 02:55:10;;;;;;;29.35;10.95;;;18.00;51.50;;;;;;5087764;28;20151;-62
2023/02/12 02:57:57;;;;;;;21.58;7.93;;;17.90;52.40;;;;;;5087264;28;20540;-63
2023/02/12 03:00:47;;;;;;;26.52;8.73;;;17.80;53.10;;;;;;5090062;28;20079;-63
2023/02/12 03:03:28;;;;;;;46.83;9.93;;;17.60;53.80;;;;;;5087092;28;20568;-61
2023/02/12 03:06:06;;;;;;;30.60;7.30;;;17.60;54.10;;;;;;5087909;28;20084;-61
2023/02/12 03:08:41;;;;;;;22.23;6.80;;;17.60;54.50;;;;;;5087068;28;20080;-63
2023/02/12 03:11:18;;;;;;;33.72;8.55;;;17.50;54.80;;;;;;5088718;28;20099;-59
2023/02/12 03:13:55;;;;;;;23.77;7.40;;;17.40;55.40;;;;;;5085200;28;20126;-61
2023/02/12 03:16:32;;;;;;;27.67;6.03;;;17.40;56.10;;;;;;5089275;28;20081;-63
2023/02/12 03:19:02;;;;;;;25.88;5.55;;;17.40;55.90;;;;;;5089076;28;20088;-61
2023/02/12 03:21:51;;;;;;;20.90;4.85;;;17.30;56.70;;;;;;5091564;28;20431;-61
2023/02/12 03:24:30;;;;;;;30.42;5.07;;;17.20;57.40;;;;;;5089259;28;20110;-61
2023/02/12 03:27:16;;;;;;;27.38;5.80;;;17.10;57.40;;;;;;5091083;28;20061;-62
2023/02/12 03:29:43;;;;;;;23.50;6.10;;;17.10;57.60;;;;;;5092604;28;20068;-60
2023/02/12 03:32:46;;;;;;;24.08;5.80;;;17.00;57.90;;;;;;5090844;28;20552;-62
2023/02/12 03:35:30;;;;;;;28.30;7.18;;;16.90;58.20;;;;;;5091603;28;20138;-67
2023/02/12 03:38:06;;;;;;;23.42;6.50;;;16.90;58.50;;;;;;5090300;28;20066;-62
2023/02/12 03:40:54;;;;;;;30.63;5.93;;;16.80;58.90;;;;;;5091489;28;20169;-65
2023/02/12 03:43:26;;;;;;;28.13;6.97;;;16.70;59.00;;;;;;5082460;28;20103;-60
2023/02/12 03:46:19;;;;;;;36.47;8.57;;;16.60;59.20;;;;;;5091729;28;20095;-61
2023/02/12 03:48:55;;;;;;;26.67;6.82;;;16.60;59.50;;;;;;5088976;28;20081;-63
2023/02/12 03:51:24;;;;;;;27.15;6.75;;;16.50;59.50;;;;;;5093105;28;20602;-63
2023/02/12 03:53:51;;;;;;;32.58;6.97;;;16.40;59.60;;;;;;5091199;28;20068;-65
2023/02/12 03:56:51;;;;;;;31.88;7.18;;;16.30;59.80;;;;;;5090369;28;20477;-63
2023/02/12 03:59:24;;;;;;;29.52;7.65;;;16.30;60.00;;;;;;5083899;28;20140;-63
2023/02/12 04:01:53;;;;;;;36.33;8.23;;;16.30;60.00;;;;;;5090701;28;20075;-64
2023/02/12 04:04:20;;;;;;;27.50;7.07;;;16.30;60.00;;;;;;5091783;28;20105;-65
2023/02/12 04:06:49;;;;;;;29.38;6.32;;;16.30;60.90;;;;;;5092687;28;20443;-62
2023/02/12 04:09:17;;;;;;;28.73;6.18;;;16.20;60.50;;;;;;5097561;28;20083;-65
2023/02/12 04:11:52;;;;;;;24.30;6.22;;;16.20;60.30;;;;;;5089806;28;20121;-64
2023/02/12 04:14:40;;;;;;;24.92;6.00;;;16.20;60.40;;;;;;5091224;28;20207;-62
2023/02/12 04:17:43;;;;;;;36.60;7.20;;;16.20;60.60;;;;;;5092943;28;20139;-62
2023/02/12 04:20:46;;;;;;;29.23;7.07;;;16.10;60.80;;;;;;5037258;28;20094;-62
2023/02/12 04:23:22;;;;;;;25.83;6.63;;;16.00;60.80;;;;;;5089341;28;20499;-65
2023/02/12 04:26:03;;;;;;;24.45;6.20;;;15.90;61.10;;;;;;5086735;28;20746;-59
2023/02/12 04:29:05;;;;;;;24.90;5.93;;;15.80;61.50;;;;;;5089463;28;20089;-62
2023/02/12 04:31:37;;;;;;;29.50;6.53;;;15.80;61.50;;;;;;5088675;28;20080;-65
2023/02/12 04:34:13;;;;;;;31.13;7.80;;;15.80;61.30;;;;;;5089073;28;20105;-62
2023/02/12 04:36:51;;;;;;;26.90;7.32;;;15.80;61.30;;;;;;5092459;28;20066;-65
2023/02/12 04:39:26;;;;;;;33.15;12.25;;;15.60;61.60;;;;;;5088750;28;20069;-62
2023/02/12 04:41:53;;;;;;;29.30;7.55;;;15.60;61.60;;;;;;5096923;28;20079;-63
2023/02/12 04:44:24;;;;;;;23.17;6.55;;;15.50;62.40;;;;;;5091406;28;20089;-66
2023/02/12 04:46:52;;;;;;;25.48;5.68;;;15.40;62.20;;;;;;5089490;28;20078;-60
2023/02/12 04:49:21;;;;;;;27.38;5.43;;;15.30;62.40;;;;;;5090634;28;20169;-63
2023/02/12 04:51:48;;;;;;;27.85;5.75;;;15.30;62.70;;;;;;5091335;28;20094;-63
2023/02/12 04:54:16;;;;;;;30.70;5.63;;;15.30;62.40;;;;;;5088791;28;20072;-61
2023/02/12 04:56:43;;;;;;;20.50;4.82;;;15.30;62.30;;;;;;5087475;28;20069;-65
2023/02/12 04:59:10;;;;;;;22.00;4.72;;;15.30;62.00;;;;;;5086188;28;20070;-62
2023/02/12 05:01:38;;;;;;;26.67;4.63;;;15.30;62.00;;;;;;5089550;28;20065;-63
2023/02/12 05:04:05;;;;;;;21.23;4.43;;;15.30;62.00;;;;;;5090397;28;20114;-64
2023/02/12 05:06:35;;;;;;;16.65;4.25;;;15.20;62.00;;;;;;5089452;28;20572;-62
2023/02/12 05:09:02;;;;;;;23.77;4.47;;;15.30;62.10;;;;;;5089272;28;20071;-61
2023/02/12 05:11:28;;;;;;;22.77;4.18;;;15.30;62.10;;;;;;5088774;28;20081;-59
2023/02/12 05:13:54;;;;;;;;;;;15.20;62.20;;;;;;5089809;28;20553;-63
2023/02/12 05:16:21;;;;;;;21.95;4.15;;;15.10;62.20;;;;;;5089991;28;19959;-63
2023/02/12 05:18:48;;;;;;;23.33;4.63;;;15.10;61.90;;;;;;5089661;28;20591;-60
2023/02/12 05:21:14;;;;;;;20.40;4.05;;;15.10;61.60;;;;;;5090797;28;20093;-60
2023/02/12 05:23:41;;;;;;;19.75;5.00;;;15.00;61.80;;;;;;5089670;28;20089;-57
2023/02/12 05:26:17;;;;;;;26.05;4.45;;;15.00;61.90;;;;;;5090269;28;20089;-55
2023/02/12 05:28:43;;;;;;;35.55;8.20;;;14.90;62.20;;;;;;5089750;28;20079;-54
2023/02/12 05:31:15;;;;;;;30.58;6.43;;;14.80;62.40;;;;;;5089674;28;20101;-58
2023/02/12 05:33:45;;;;;;;25.95;6.15;;;15.10;62.90;;;;;;5090016;28;20518;-66
2023/02/12 05:36:15;;;;;;;34.15;9.30;;;15.50;61.60;;;;;;5088965;28;20084;-64
2023/02/12 05:38:42;;;;;;;25.63;7.55;;;15.80;60.60;;;;;;5089907;28;20151;-64
2023/02/12 05:41:11;;;;;;;33.38;7.13;;;15.90;60.00;;;;;;5089110;28;20119;-63
2023/02/12 05:43:37;;;;;;;31.25;5.25;;;16.00;59.30;;;;;;5088290;28;20087;-63
2023/02/12 05:46:05;;;;;;;26.60;6.43;;;15.90;59.10;;;;;;5089012;28;20425;-61
2023/02/12 05:48:33;;;;;;;25.00;5.82;;;16.10;59.00;;;;;;5089040;28;20065;-64
2023/02/12 05:51:08;;;;;;;28.65;5.10;;;16.20;58.70;;;;;;5091878;28;20108;-62
2023/02/12 05:53:35;;;;;;;27.35;4.45;;;16.30;58.40;;;;;;5093271;28;20116;-61
2023/02/12 05:56:15;;;;;;;27.83;5.22;;;16.20;58.30;;;;;;5089392;28;20076;-64
2023/02/12 05:58:45;;;;;;;32.22;7.45;;;16.30;58.30;;;;;;5088832;28;20113;-66
2023/02/12 06:01:18;;;;;;;27.20;5.30;;;16.00;58.30;;;;;;5085138;28;20081;-61
2023/02/12 06:03:44;;;;;;;29.88;5.68;;;15.80;58.70;;;;;;5087423;28;20108;-66
2023/02/12 06:06:11;;;;;;;26.77;5.40;;;15.80;59.00;;;;;;5087964;28;20107;-60
2023/02/12 06:08:38;;;;;;;22.63;4.70;;;15.70;59.10;;;;;;5085350;28;20140;-61
2023/02/12 06:11:08;;;;;;;25.20;4.72;;;15.80;59.30;;;;;;5087261;28;20100;-63
2023/02/12 06:13:34;;;;;;;29.92;6.38;;;15.80;58.80;;;;;;5086894;28;20075;-64
2023/02/12 06:16:02;;;;;;;28.90;6.07;;;15.90;58.90;;;;;;5087736;28;20096;-65
2023/02/12 06:18:28;;;;;;;24.38;5.60;;;15.90;58.70;;;;;;5089086;28;20084;-64
2023/02/12 06:20:55;;;;;;;25.90;4.82;;;15.80;58.90;;;;;;5087506;28;20070;-62
2023/02/12 06:23:23;;;;;;;189.80;11.25;;;15.70;59.20;;;;;;5089221;28;20085;-63
2023/02/12 06:25:54;;;;;;;19.75;5.43;;;15.80;59.00;;;;;;5086667;28;20071;-63
2023/02/12 06:28:20;;;;;;;19.88;4.32;;;15.60;59.10;;;;;;5086393;28;20129;-64
2023/02/12 06:30:46;;;;;;;;;;;15.60;59.40;;;;;;5090317;28;20090;-65
2023/02/12 06:33:13;;;;;;;33.08;10.38;;;15.50;59.30;;;;;;5087540;28;19959;-61
2023/02/12 06:35:39;;;;;;;;;;;15.50;59.40;;;;;;5087240;28;20069;-64
2023/02/12 06:38:05;;;;;;;23.13;5.63;;;15.50;59.20;;;;;;5087196;28;19959;-62
2023/02/12 06:40:32;;;;;;;21.63;4.45;;;15.40;59.50;;;;;;5086885;28;20527;-61
2023/02/12 06:42:58;;;;;;;27.77;6.07;;;15.30;59.40;;;;;;5088723;28;20088;-65
2023/02/12 06:45:25;;;;;;;23.67;6.03;;;15.40;59.60;;;;;;5092566;28;20103;-62
2023/02/12 06:47:51;;;;;;;;;;;15.50;59.50;;;;;;5088705;28;20082;-65
2023/02/12 06:50:17;;;;;;;22.27;5.07;;;15.50;59.50;;;;;;5087158;28;19956;-62
2023/02/12 06:52:44;;;;;;;21.10;3.97;;;15.60;59.30;;;;;;5088141;28;20089;-59
2023/02/12 06:55:10;;;;;;;23.95;5.13;;;15.50;59.00;;;;;;5081810;28;20067;-60
2023/02/12 06:57:36;;;;;;;;;;;15.50;59.10;;;;;;5087853;28;20093;-61
2023/02/12 07:00:03;;;;;;;17.10;3.85;;;15.30;59.30;;;;;;5087004;28;20050;-63
2023/02/12 07:02:30;;;;;;;24.00;3.92;;;15.10;59.90;;;;;;5086125;28;20116;-65
2023/02/12 07:04:58;;;;;;;13.43;3.65;;;15.10;59.90;;;;;;5086872;28;20741;-65
2023/02/12 07:07:24;;;;;;;;;;;15.00;60.10;;;;;;5087378;28;20591;-61
2023/02/12 07:09:50;;;;;;;24.08;4.80;;;14.80;60.80;;;;;;5087154;28;19992;-64
2023/02/12 07:12:17;;;;;;;;;;;14.90;61.20;;;;;;5090903;28;20088;-66
2023/02/12 07:14:43;;;;;;;19.55;3.78;;;14.90;61.10;;;;;;5087943;28;19953;-60
2023/02/12 07:17:09;;;;;;;;;;;14.90;60.90;;;;;;5087189;28;20082;-65
2023/02/12 07:19:36;;;;;;;24.48;4.60;;;15.00;60.90;;;;;;5089358;28;20324;-62
2023/02/12 07:22:03;;;;;;;16.55;4.00;;;15.00;61.10;;;;;;5087035;28;20123;-64
2023/02/12 07:24:29;;;;;;;19.90;4.10;;;14.90;61.00;;;;;;5085133;28;20077;-67
2023/02/12 07:26:55;;;;;;;;;;;14.80;61.90;;;;;;5085127;28;20552;-65
2023/02/12 07:29:22;;;;;;;24.77;4.55;;;14.70;62.00;;;;;;5090006;28;20070;-65
2023/02/12 07:31:48;;;;;;;;;;;14.70;62.40;;;;;;5090131;28;20074;-66
2023/02/12 07:34:14;;;;;;;32.08;5.63;;;14.60;62.30;;;;;;5087546;28;19965;-65
2023/02/12 07:36:41;;;;;;;;;;;14.70;62.30;;;;;;5088216;28;20073;-63
2023/02/12 07:39:09;;;;;;;20.58;4.35;;;14.70;62.50;;;;;;5086756;28;19957;-62
2023/02/12 07:41:36;;;;;;;21.08;5.10;;;14.60;62.40;;;;;;5085966;28;20107;-61
2023/02/12 07:44:06;;;;;;;26.05;7.45;;;14.60;62.70;;;;;;5086731;28;20094;-63
2023/02/12 07:46:45;;;;;;;25.10;6.10;;;14.60;62.90;;;;;;5086575;28;20076;-64
2023/02/12 07:49:20;;;;;;;22.52;5.10;;;14.40;63.00;;;;;;5087162;28;20073;-62
2023/02/12 07:51:48;;;;;;;25.98;5.03;;;14.20;63.40;;;;;;5088942;28;20101;-62
2023/02/12 07:54:15;;;;;;;20.08;4.35;;;14.20;63.70;;;;;;5089626;28;20079;-65
2023/02/12 07:56:45;;;;;;;23.83;4.53;;;14.10;64.00;;;;;;5091269;28;20153;-65
2023/02/12 07:59:14;;;;;;;22.13;4.85;;;13.90;64.30;;;;;;5087806;28;20100;-66
2023/02/12 08:01:45;;;;;;;20.73;4.10;;;13.90;64.30;;;;;;5088780;28;20123;-68
2023/02/12 08:04:14;;;;;;;19.45;4.40;;;14.00;63.60;;;;;;5090648;28;20112;-63
2023/02/12 08:06:43;;;;;;;11.88;3.70;;;14.00;63.50;;;;;;5088982;28;20078;-63
2023/02/12 08:09:12;;;;;;;15.10;3.78;;;13.90;63.30;;;;;;5089257;28;20153;-64
2023/02/12 08:11:40;;;;;;;19.73;4.05;;;13.80;63.00;;;;;;5088491;28;20088;-64
2023/02/12 08:14:07;;;;;;;16.25;3.63;;;13.60;62.90;;;;;;5090884;28;20070;-66
2023/02/12 08:16:38;;;;;;;17.52;4.40;;;13.60;62.40;;;;;;5088424;28;20558;-64
2023/02/12 08:19:05;;;;;;;18.27;3.30;;;13.70;62.40;;;;;;5091300;28;20108;-66
2023/02/12 08:21:31;;;;;;;18.05;3.97;;;13.60;62.10;;;;;;5092516;28;20070;-64
2023/02/12 08:23:58;;;;;;;15.85;3.28;;;13.40;62.50;;;;;;5088627;28;20097;-62
2023/02/12 08:26:29;;;;;;;15.65;3.95;;;13.50;62.00;;;;;;5089689;28;20070;-65
2023/02/12 08:28:59;;;;;;;15.57;3.10;;;13.50;61.70;;;;;;5090639;28;20516;-65
2023/02/12 08:31:31;;;;;;;23.15;3.97;;;13.50;61.60;;;;;;5089780;28;20132;-65
2023/02/12 08:33:58;;;;;;;10.75;2.97;;;13.40;61.80;;;;;;5092142;28;20069;-65
2023/02/12 08:36:27;;;;;;;19.02;4.47;;;13.40;62.20;;;;;;5090526;28;20130;-66
2023/02/12 08:38:56;;;;;;;18.15;3.50;;;13.20;61.80;;;;;;5089728;28;20078;-66
2023/02/12 08:41:24;;;;;;;19.95;4.18;;;13.20;62.20;;;;;;5090414;28;20597;-66
2023/02/12 08:43:53;;;;;;;17.50;3.83;;;13.00;62.80;;;;;;5089860;28;20114;-64
2023/02/12 08:46:22;;;;;;;19.27;4.07;;;12.90;62.70;;;;;;5091377;28;20433;-65
2023/02/12 08:48:53;;;;;;;13.88;3.33;;;12.90;62.50;;;;;;5089386;28;20070;-65
2023/02/12 08:51:22;;;;;;;17.30;2.90;;;13.00;61.90;;;;;;5091291;28;20103;-66
2023/02/12 08:53:52;;;;;;;15.88;3.42;;;13.00;61.70;;;;;;5090305;28;20122;-64
2023/02/12 08:56:19;;;;;;;10.55;2.63;;;12.80;61.30;;;;;;5090216;28;20066;-63
2023/02/12 08:58:46;;;;;;;13.77;3.15;;;12.90;61.20;;;;;;5094620;28;20070;-64
2023/02/12 09:01:16;;;;;;;17.65;3.58;;;12.60;61.40;;;;;;5091037;28;20086;-65
2023/02/12 09:03:43;;;;;;;14.88;3.05;;;12.80;61.60;;;;;;5091567;28;20554;-65
2023/02/12 09:06:10;;;;;;;18.45;3.60;;;12.80;61.50;;;;;;5089470;28;20424;-64
2023/02/12 09:08:38;;;;;;;11.77;2.78;;;12.80;60.80;;;;;;5088867;28;20086;-61
2023/02/12 09:11:07;;;;;;;15.65;3.33;;;12.70;60.30;;;;;;5090854;28;20318;-64
2023/02/12 09:13:34;;;;;;;14.25;2.83;;;12.80;60.40;;;;;;5090290;28;21327;-65
2023/02/12 09:16:02;;;;;;;17.45;2.97;;;12.70;60.30;;;;;;5089013;28;20078;-63
2023/02/12 09:18:29;;;;;;;13.43;3.30;;;12.60;60.30;;;;;;5089910;28;20613;-64
2023/02/12 09:21:05;;;;;;;13.43;2.97;;;12.70;60.10;;;;;;5091029;28;20423;-64
2023/02/12 09:23:31;;;;;;;12.90;2.95;;;12.70;59.40;;;;;;5088930;28;20078;-64
2023/02/12 09:25:57;;;;;;;13.52;2.83;;;12.70;59.20;;;;;;5093357;28;20126;-67
2023/02/12 09:28:24;;;;;;;;;;;12.70;58.90;;;;;;5091001;28;20078;-63
2023/02/12 09:30:50;;;;;;;11.68;2.53;;;12.80;58.80;;;;;;5090791;28;19957;-64
2023/02/12 09:33:17;;;;;;;13.63;2.97;;;12.70;58.30;;;;;;5089492;28;20139;-67
2023/02/12 09:35:43;;;;;;;12.65;2.72;;;12.60;58.70;;;;;;5089803;28;20071;-63
2023/02/12 09:38:10;;;;;;;;;;;12.60;69.50;;;;;;5090631;28;20035;-65
2023/02/12 09:41:07;;;;;;;19.20;3.65;;;12.70;59.80;;;;;;5087277;28;20057;-62
2023/02/12 09:43:44;;;;;;;9.95;2.45;;;12.90;87.20;;;;;;5088840;28;20114;-62
2023/02/12 09:46:38;;;;;;;13.00;2.80;;;12.40;91.30;;;;;;5090166;28;20065;-64
2023/02/12 09:49:14;;;;;;;13.05;3.10;;;12.50;64.60;;;;;;5060026;28;20794;-63
2023/02/12 09:51:45;;;;;;;9.25;2.78;;;12.70;58.50;;;;;;5090056;28;20110;-63
2023/02/12 09:54:18;;;;;;;20.27;2.95;;;12.70;58.50;;;;;;5098531;28;20070;-64
2023/02/12 09:56:51;;;;;;;17.98;3.17;;;12.80;58.50;;;;;;5102689;28;20435;-65
2023/02/12 09:59:36;;;;;;;14.90;2.88;;;12.70;58.60;;;;;;5089926;28;20074;-64
2023/02/12 10:02:11;;;;;;;10.52;2.65;;;12.80;58.80;;;;;;5088368;28;20168;-63
2023/02/12 10:04:38;;;;;;;15.15;3.05;;;12.80;58.60;;;;;;5089620;28;20085;-64
2023/02/12 10:07:06;;;;;;;;;;;12.80;58.50;;;;;;5088428;28;20076;-64
2023/02/12 10:09:55;;;;;;;11.48;2.45;;;12.90;58.50;;;;;;5089077;28;20050;-65
2023/02/12 10:12:27;;;;;;;16.13;2.72;;;12.90;58.20;;;;;;5089459;28;20522;-64
2023/02/12 10:15:22;;;;;;;23.25;3.20;;;13.30;81.10;;;;;;5088606;28;20409;-66
2023/02/12 10:18:15;;;;;;;14.82;2.80;;;12.70;77.20;;;;;;5083681;28;20032;-65
2023/02/12 10:21:00;;;;;;;15.48;3.00;;;12.70;69.20;;;;;;5087234;28;20123;-66
2023/02/12 10:23:29;;;;;;;22.40;2.78;;;;;;;;;;5088482;28;20387;-61
2023/02/12 10:25:59;;;;;;;13.95;2.33;;;13.50;80.50;;;;;;5088244;28;20155;-65
2023/02/12 10:28:38;;;;;;;13.90;2.45;;;13.00;73.90;;;;;;5087267;28;20012;-63
2023/02/12 10:31:31;;;;;;;10.32;2.50;;;13.50;68.00;;;;;;5090374;28;20111;-65
2023/02/12 10:33:58;;;;;;;11.15;2.70;;;13.10;83.80;;;;;;5086045;28;20481;-64
2023/02/12 10:36:47;;;;;;;9.20;2.38;;;12.90;82.40;;;;;;5089885;28;20063;-64
2023/02/12 10:39:28;;;;;;;15.13;2.40;;;13.50;68.20;;;;;;5088465;28;20065;-64
2023/02/12 10:42:25;;;;;;;14.25;2.97;;;12.40;64.80;;;;;;5093650;28;20080;-63
2023/02/12 10:44:51;;;;;;;9.93;2.40;;;13.00;54.30;;;;;;5088459;28;20091;-65
2023/02/12 10:47:21;;;;;;;;;;;13.00;54.80;;;;;;5088659;28;20057;-65
2023/02/12 10:49:58;;;;;;;12.93;2.60;;;;;;;;;;5088945;28;19951;-62
2023/02/12 10:52:40;;;;;;;18.08;2.72;;;12.90;55.10;;;;;;5087294;28;20427;-62
2023/02/12 10:55:27;;;;;;;12.88;2.75;;;;;;;;;;5085223;28;20044;-65
2023/02/12 10:57:57;;;;;;;9.35;2.30;;;13.30;65.90;;;;;;5086692;28;20027;-65
2023/02/12 11:00:23;;;;;;;11.77;2.15;;;;;;;;;;5088638;28;20074;-61
2023/02/12 11:03:11;;;;;;;13.77;2.60;;;13.20;75.00;;;;;;5086711;28;20089;-64
2023/02/12 11:05:40;;;;;;;36.15;16.50;;;13.80;85.80;;;;;;5088479;28;20092;-64
2023/02/12 11:08:07;;;;;;;34.25;14.43;;;13.00;93.70;;;;;;5087585;28;20098;-65
2023/02/12 11:10:41;;;;;;;10.55;2.22;;;13.00;56.40;;;;;;5087959;28;20573;-63
2023/02/12 11:13:27;;;;;;;15.20;2.72;;;13.10;57.00;;;;;;5094217;28;20565;-66
2023/02/12 11:15:54;;;;;;;12.95;2.67;;;13.10;57.20;;;;;;5086582;28;20066;-65
2023/02/12 11:18:31;;;;;;;11.65;2.78;;;13.10;57.20;;;;;;5087986;28;20081;-64
2023/02/12 11:21:12;;;;;;;8.93;2.40;;;13.10;57.20;;;;;;5088677;28;20549;-65
2023/02/12 11:23:40;;;;;;;13.80;3.00;;;13.10;57.10;;;;;;5087969;28;20132;-65
2023/02/12 11:26:28;;;;;;;12.38;2.58;;;13.00;56.30;;;;;;5087859;28;20687;-64
2023/02/12 11:28:56;;;;;;;;;;;13.00;56.90;;;;;;5087893;28;20065;-65
2023/02/12 11:31:34;;;;;;;13.23;2.53;;;13.00;56.30;;;;;;5086456;28;20016;-64
2023/02/12 11:34:18;;;;;;;14.20;2.35;;;13.10;56.10;;;;;;5087214;28;20056;-65
2023/02/12 11:36:53;;;;;;;23.63;3.25;;;13.10;56.50;;;;;;5087136;28;20081;-64
2023/02/12 11:39:31;;;;;;;12.73;2.38;;;12.80;60.40;;;;;;5088236;28;20184;-63
2023/02/12 11:42:05;;;;;;;16.42;3.03;;;13.00;56.10;;;;;;5091111;28;20078;-64
2023/02/12 11:44:41;;;;;;;11.70;1.92;;;13.00;56.40;;;;;;5090729;28;20085;-63
2023/02/12 11:47:17;;;;;;;17.05;2.67;;;13.00;55.50;;;;;;5092494;28;20111;-64
2023/02/12 11:49:57;;;;;;;8.30;2.55;;;13.00;55.20;;;;;;5091636;28;20067;-60
2023/02/12 11:52:27;;;;;;;11.88;2.47;;;12.90;55.30;;;;;;5092156;28;20073;-61
2023/02/12 11:55:04;;;;;;;10.93;2.47;;;13.00;55.00;;;;;;5093104;28;20078;-64
2023/02/12 11:57:42;;;;;;;14.25;2.97;;;13.00;55.00;;;;;;5094714;28;20062;-65
2023/02/12 12:00:32;;;;;;;11.00;2.35;;;13.00;55.10;;;;;;5093072;28;20084;-65
2023/02/12 12:03:24;;;;;;;9.38;2.10;;;13.00;55.10;;;;;;5092433;28;20106;-64
2023/02/12 12:06:16;;;;;;;8.20;2.08;;;13.00;55.00;;;;;;5092021;28;20140;-66
2023/02/12 12:08:59;;;;;;;9.63;2.47;;;12.90;55.20;;;;;;5077898;28;20113;-66
2023/02/12 12:12:02;;;;;;;10.23;2.40;;;13.00;55.40;;;;;;5091455;28;20503;-64
2023/02/12 12:19:51;;;;;;;10.07;2.67;;;12.80;55.80;;;;;;5090937;28;20091;-63
2023/02/12 12:20:34;;;;;;;9.63;2.55;;;12.90;56.70;;;;;;5092623;28;20147;-64
2023/02/12 12:23:26;;;;;;;12.25;2.20;;;12.80;57.20;;;;;;5091783;28;20149;-65
2023/02/12 12:26:00;;;;;;;10.02;2.17;;;12.80;57.60;;;;;;5091314;28;20079;-63
2023/02/12 12:28:55;;;;;;;10.60;2.58;;;12.80;58.00;;;;;;5091516;28;20150;-65
2023/02/12 12:31:27;;;;;;;11.80;2.50;;;12.80;58.20;;;;;;5066513;28;20165;-63
2023/02/12 12:34:03;;;;;;;11.98;2.50;;;12.90;58.40;;;;;;5091858;28;20070;-66
2023/02/12 12:37:01;;;;;;;13.90;2.65;;;12.90;58.60;;;;;;5090071;28;20070;-66
2023/02/12 12:39:52;;;;;;;12.77;2.42;;;12.90;58.80;;;;;;5090730;28;20065;-64
2023/02/12 12:42:39;;;;;;;11.95;2.65;;;12.80;59.10;;;;;;5091080;28;20552;-66
2023/02/12 12:45:21;;;;;;;11.50;2.60;;;12.80;59.30;;;;;;5091598;28;20101;-65
2023/02/12 12:48:24;;;;;;;12.45;2.70;;;12.80;59.40;;;;;;5091998;28;20976;-64
2023/02/12 12:51:23;;;;;;;9.18;2.33;;;12.80;59.30;;;;;;5090923;28;20130;-61
2023/02/12 12:54:00;;;;;;;13.05;2.80;;;12.80;59.50;;;;;;5089208;28;20075;-66
2023/02/12 12:56:29;;;;;;;8.98;2.60;;;12.70;59.70;;;;;;5090511;28;20072;-65
2023/02/12 12:59:21;;;;;;;10.52;3.33;;;12.50;59.60;;;;;;5090931;28;20184;-63
2023/02/12 13:02:08;;;;;;;12.65;2.80;;;12.50;60.90;;;;;;5090001;28;20211;-64
2023/02/12 13:05:11;;;;;;;15.17;2.93;;;12.40;60.80;;;;;;5090936;28;20179;-63
2023/02/12 13:07:53;;;;;;;11.18;2.85;;;12.50;59.70;;;;;;5089298;28;20074;-63
2023/02/12 13:10:37;;;;;;;12.73;2.85;;;12.60;59.30;;;;;;5089933;28;20116;-66
2023/02/12 13:13:32;;;;;;;9.60;2.55;;;12.60;58.70;;;;;;5089523;28;20078;-66
2023/02/12 13:16:16;;;;;;;14.07;2.90;;;12.70;58.50;;;;;;5091836;28;20071;-65
2023/02/12 13:19:16;;;;;;;13.85;3.15;;;12.80;57.20;;;;;;5090612;28;20450;-63
2023/02/12 13:22:10;;;;;;;15.73;3.03;;;12.70;58.20;;;;;;5090680;28;21762;-69